Time;durP1;ratioP1;P1;durP2;ratioP2;P2;SDS_P1;SDS_P2;PMS_P1;PMS_P2;Temp;Humidity;BMP_temperature;BMP_pressure;BME280_temperature;BME280_humidity;BME280_pressure;Samples;Min_cycle;Max_cycle;Signal;HPM_P1;HPM_P2
2023/02/21 02:15:08;;;;;;;9.23;2.85;;;;;;;;;;4952581;29;20058;-63
2023/02/21 02:17:49;;;;;;;6.32;3.00;;;;;;;;;;4936747;29;20388;-64
2023/02/21 02:20:37;;;;;;;5.97;2.38;;;;;;;;;;4920465;29;20055;-63
2023/02/21 02:23:41;;;;;;;4.25;2.65;;;;;;;;;;4920644;29;20063;-64
2023/02/21 02:26:32;;;;;;;6.25;2.03;;;;;;;;;;4932953;29;20051;-65
2023/02/21 02:29:13;;;;;;;6.75;2.40;;;;;;;;;;4932753;29;20056;-64
2023/02/21 02:32:23;;;;;;;6.53;2.17;;;;;;;;;;4942766;29;20423;-63
2023/02/21 02:34:59;;;;;;;6.38;2.95;;;;;;;;;;4932605;29;20059;-63
2023/02/21 02:38:02;;;;;;;6.55;2.75;;;;;;;;;;4954116;28;20058;-63
2023/02/21 02:40:45;;;;;;;6.55;2.90;;;;;;;;;;4894490;29;20071;-64
2023/02/21 02:43:30;;;;;;;6.20;2.78;;;;;;;;;;4879157;29;20134;-64
2023/02/21 02:46:08;;;;;;;7.00;2.75;;;;;;;;;;4872402;29;20053;-64
2023/02/21 02:48:41;;;;;;;8.25;2.90;;;;;;;;;;4857742;29;20062;-63
2023/02/21 02:51:15;;;;;;;6.90;3.40;;;;;;;;;;4838974;29;20050;-65
2023/02/21 02:53:46;;;;;;;6.38;3.33;;;;;;;;;;4838905;29;20053;-62
2023/02/21 02:56:17;;;;;;;10.43;2.75;;;;;;;;;;4840193;29;20069;-64
2023/02/21 02:58:51;;;;;;;6.43;2.83;;;;;;;;;;4875716;29;20064;-62
2023/02/21 03:01:48;;;;;;;7.97;3.08;;;;;;;;;;4875839;29;20498;-62
2023/02/21 03:04:44;;;;;;;9.25;2.92;;;;;;;;;;4860129;29;20109;-64
2023/02/21 03:07:33;;;;;;;7.90;3.10;;;;;;;;;;4833812;29;20107;-63
2023/02/21 03:10:20;;;;;;;6.82;2.72;;;;;;;;;;4875804;29;20056;-63
2023/02/21 03:13:25;;;;;;;6.40;3.20;;;;;;;;;;4830946;29;20053;-63
2023/02/21 03:15:59;;;;;;;13.05;3.45;;;;;;;;;;4837800;29;20062;-62
2023/02/21 03:18:35;;;;;;;8.93;3.75;;;;;;;;;;4824955;29;20058;-62
2023/02/21 03:21:13;;;;;;;8.32;3.22;;;;;;;;;;4802126;29;20061;-62
2023/02/21 03:23:47;;;;;;;7.75;3.47;;;;;;;;;;4820922;29;20107;-64
2023/02/21 03:26:18;;;;;;;8.75;3.65;;;;;;;;;;4838426;29;20057;-63
2023/02/21 03:28:54;;;;;;;8.63;3.30;;;;;;;;;;4852723;29;20050;-62
2023/02/21 03:31:30;;;;;;;7.82;4.15;;;;;;;;;;4862859;29;20050;-63
2023/02/21 03:34:01;;;;;;;6.63;3.15;;;;;;;;;;4838783;29;20058;-63
2023/02/21 03:36:32;;;;;;;8.57;4.00;;;;;;;;;;4866173;29;20465;-66
2023/02/21 03:39:02;;;;;;;8.80;3.60;;;;;;;;;;4872046;29;20053;-63
2023/02/21 03:41:32;;;;;;;10.25;3.05;;;;;;;;;;4837971;29;20046;-63
2023/02/21 03:44:02;;;;;;;7.13;3.22;;;;;;;;;;4838135;29;20058;-62
2023/02/21 03:46:34;;;;;;;6.32;3.83;;;;;;;;;;4856467;29;20076;-64
2023/02/21 03:49:05;;;;;;;9.85;3.75;;;;;;;;;;4825461;29;20063;-63
2023/02/21 03:51:35;;;;;;;8.60;3.90;;;;;;;;;;4859225;29;20053;-64
2023/02/21 03:54:05;;;;;;;10.73;4.03;;;;;;;;;;4847856;29;20062;-63
2023/02/21 03:56:41;;;;;;;8.35;3.25;;;;;;;;;;4823533;29;20058;-63
2023/02/21 03:59:21;;;;;;;11.00;3.65;;;;;;;;;;4856547;29;20058;-64
2023/02/21 04:01:52;;;;;;;10.85;3.70;;;;;;;;;;4875536;29;20068;-62
2023/02/21 04:04:23;;;;;;;7.60;3.58;;;;;;;;;;4863223;29;20058;-63
2023/02/21 04:07:04;;;;;;;7.60;3.42;;;;;;;;;;4889037;29;20125;-62
2023/02/21 04:09:34;;;;;;;9.38;3.75;;;;;;;;;;4847495;29;20073;-63
2023/02/21 04:12:05;;;;;;;6.13;2.97;;;;;;;;;;4841832;29;20065;-63
2023/02/21 04:14:36;;;;;;;7.07;3.33;;;;;;;;;;4893560;29;20060;-63
2023/02/21 04:17:06;;;;;;;7.68;3.75;;;;;;;;;;4853990;29;20049;-63
2023/02/21 04:19:36;;;;;;;6.38;3.28;;;;;;;;;;4905692;29;20053;-65
2023/02/21 04:22:07;;;;;;;7.38;3.22;;;;;;;;;;4915913;29;20068;-63
2023/02/21 04:24:38;;;;;;;7.80;3.05;;;;;;;;;;4935040;29;20052;-63
2023/02/21 04:27:08;;;;;;;14.38;3.95;;;;;;;;;;4935135;29;20170;-63
2023/02/21 04:29:40;;;;;;;8.02;3.70;;;;;;;;;;4920916;29;20084;-64
2023/02/21 04:32:11;;;;;;;7.82;3.97;;;;;;;;;;4930040;29;20058;-64
2023/02/21 04:34:41;;;;;;;8.38;3.67;;;;;;;;;;4946696;29;20054;-64
2023/02/21 04:37:14;;;;;;;8.10;3.38;;;;;;;;;;4915904;29;20056;-64
2023/02/21 04:39:44;;;;;;;8.18;3.70;;;;;;;;;;4934810;29;20403;-67
2023/02/21 04:42:16;;;;;;;6.63;3.08;;;;;;;;;;4923823;29;20495;-64
2023/02/21 04:44:46;;;;;;;10.13;3.15;;;;;;;;;;4922180;29;20048;-64
2023/02/21 04:47:28;;;;;;;13.02;3.72;;;;;;;;;;4905665;29;20045;-64
2023/02/21 04:49:59;;;;;;;5.97;3.10;;;;;;;;;;4919746;29;20505;-64
2023/02/21 04:52:30;;;;;;;5.20;2.78;;;;;;;;;;4897327;29;20068;-63
2023/02/21 04:55:00;;;;;;;5.55;2.80;;;;;;;;;;4896885;29;20418;-63
2023/02/21 04:57:29;;;;;;;10.50;4.05;;;;;;;;;;4885970;29;20057;-63
2023/02/21 05:00:00;;;;;;;7.13;3.38;;;;;;;;;;4889376;29;20071;-63
2023/02/21 05:02:30;;;;;;;9.93;3.83;;;;;;;;;;4918709;29;20051;-63
2023/02/21 05:04:59;;;;;;;9.57;3.60;;;;;;;;;;4945923;28;20059;-63
2023/02/21 05:07:29;;;;;;;10.55;4.60;;;;;;;;;;4966939;28;21428;-65
2023/02/21 05:09:59;;;;;;;11.45;4.15;;;;;;;;;;4956026;28;20164;-63
2023/02/21 05:12:28;;;;;;;10.73;4.32;;;;;;;;;;4973165;28;20054;-63
2023/02/21 05:14:58;;;;;;;9.88;4.63;;;;;;;;;;4983642;28;20170;-64
2023/02/21 05:17:28;;;;;;;8.18;3.78;;;;;;;;;;4995445;28;20041;-63
2023/02/21 05:19:58;;;;;;;8.88;3.70;;;;;;;;;;5011811;28;20046;-63
2023/02/21 05:22:28;;;;;;;10.73;3.95;;;;;;;;;;5026346;28;20063;-63
2023/02/21 05:24:57;;;;;;;10.40;3.83;;;;;;;;;;5074026;28;20036;-63
2023/02/21 05:27:27;;;;;;;7.53;3.75;;;;;;;;;;5074032;28;20048;-65
2023/02/21 05:29:57;;;;;;;8.38;3.30;;;;;;;;;;5021796;28;20067;-63
2023/02/21 05:32:28;;;;;;;8.57;4.20;;;;;;;;;;5073824;28;20519;-64
2023/02/21 05:34:58;;;;;;;8.40;3.97;;;;;;;;;;5073908;28;20052;-63
2023/02/21 05:37:28;;;;;;;9.32;3.95;;;;;;;;;;5073890;28;20064;-63
2023/02/21 05:39:59;;;;;;;8.32;3.00;;;;;;;;;;5073935;28;20392;-62
2023/02/21 05:42:29;;;;;;;7.53;3.38;;;;;;;;;;5038093;28;20064;-63
2023/02/21 05:44:59;;;;;;;10.23;3.67;;;;;;;;;;5073634;28;20052;-63
2023/02/21 05:47:29;;;;;;;7.60;3.65;;;;;;;;;;5073316;28;20392;-64
2023/02/21 05:49:58;;;;;;;8.32;4.00;;;;;;;;;;5073756;28;20044;-63
2023/02/21 05:52:28;;;;;;;11.60;4.25;;;;;;;;;;5038104;28;20701;-63
2023/02/21 05:54:58;;;;;;;10.05;4.03;;;;;;;;;;5038217;28;20056;-63
2023/02/21 05:57:28;;;;;;;7.22;3.22;;;;;;;;;;5073266;28;20044;-63
2023/02/21 05:59:57;;;;;;;9.98;3.58;;;;;;;;;;5073431;28;20365;-63
2023/02/21 06:02:27;;;;;;;8.00;3.42;;;;;;;;;;5073360;28;20572;-63
2023/02/21 06:04:56;;;;;;;9.57;3.50;;;;;;;;;;5073347;28;20404;-63
2023/02/21 06:07:26;;;;;;;7.68;3.17;;;;;;;;;;5073176;28;20044;-63
2023/02/21 06:09:56;;;;;;;10.20;4.13;;;;;;;;;;5037428;28;20520;-63
2023/02/21 06:12:26;;;;;;;7.10;3.40;;;;;;;;;;5072913;28;20396;-64
2023/02/21 06:14:56;;;;;;;11.85;3.90;;;;;;;;;;5073071;28;20047;-64
2023/02/21 06:17:25;;;;;;;12.32;4.15;;;;;;;;;;5073151;28;20045;-63
2023/02/21 06:19:56;;;;;;;11.88;5.10;;;;;;;;;;5037363;28;20055;-63
2023/02/21 06:22:25;;;;;;;18.25;5.78;;;;;;;;;;5054042;28;20492;-63
2023/02/21 06:24:55;;;;;;;10.30;5.00;;;;;;;;;;5038227;28;20060;-64
2023/02/21 06:27:25;;;;;;;13.13;6.00;;;;;;;;;;5003882;28;20057;-63
2023/02/21 06:29:54;;;;;;;13.32;4.95;;;;;;;;;;5072762;28;20488;-63
2023/02/21 06:32:24;;;;;;;16.42;5.40;;;;;;;;;;5037963;28;20508;-64
2023/02/21 06:34:54;;;;;;;13.70;4.78;;;;;;;;;;5072621;28;20048;-63
2023/02/21 06:37:23;;;;;;;14.15;5.05;;;;;;;;;;5072658;28;20059;-64
2023/02/21 06:39:54;;;;;;;13.20;5.07;;;;;;;;;;5037229;28;20052;-63
2023/02/21 06:42:24;;;;;;;11.05;4.68;;;;;;;;;;5037318;28;20052;-63
2023/02/21 06:44:54;;;;;;;11.27;4.57;;;;;;;;;;5037377;28;20491;-64
2023/02/21 06:47:23;;;;;;;11.45;5.13;;;;;;;;;;5072338;28;20036;-64
2023/02/21 06:49:53;;;;;;;13.00;4.82;;;;;;;;;;4989990;28;20053;-64
2023/02/21 06:52:23;;;;;;;11.75;4.35;;;;;;;;;;5003969;28;20049;-64
2023/02/21 06:54:53;;;;;;;8.25;3.70;;;;;;;;;;5072493;28;20051;-63
2023/02/21 06:57:23;;;;;;;6.65;3.65;;;;;;;;;;5037043;28;20404;-64
2023/02/21 06:59:53;;;;;;;8.23;4.07;;;;;;;;;;5036923;28;20051;-64
2023/02/21 07:02:23;;;;;;;10.48;3.90;;;;;;;;;;5072306;28;20043;-65
2023/02/21 07:04:53;;;;;;;8.68;3.75;;;;;;;;;;5072146;28;20056;-64
2023/02/21 07:07:23;;;;;;;11.55;4.25;;;;;;;;;;5020408;28;20512;-64
2023/02/21 07:09:53;;;;;;;7.75;3.92;;;;;;;;;;5036658;28;20056;-64
2023/02/21 07:12:23;;;;;;;9.27;3.75;;;;;;;;;;4988583;28;20075;-64
2023/02/21 07:14:54;;;;;;;9.77;3.80;;;;;;;;;;5071805;28;20052;-65
2023/02/21 07:17:24;;;;;;;9.65;4.53;;;;;;;;;;5072155;28;20051;-64
2023/02/21 07:19:53;;;;;;;11.32;4.38;;;;;;;;;;5071967;28;20488;-64
2023/02/21 07:22:25;;;;;;;8.68;3.83;;;;;;;;;;5035791;28;20079;-64
2023/02/21 07:24:55;;;;;;;8.43;4.00;;;;;;;;;;5052984;28;20044;-64
2023/02/21 07:27:25;;;;;;;6.78;3.38;;;;;;;;;;5020261;28;20080;-64
2023/02/21 07:29:55;;;;;;;13.55;3.47;;;;;;;;;;5020068;28;20507;-64
2023/02/21 07:32:25;;;;;;;7.35;3.17;;;;;;;;;;5071995;28;20048;-64
2023/02/21 07:34:54;;;;;;;7.18;3.42;;;;;;;;;;5071929;28;20519;-63
2023/02/21 07:37:26;;;;;;;7.30;3.25;;;;;;;;;;5020328;28;20496;-64
2023/02/21 07:39:56;;;;;;;6.57;2.65;;;;;;;;;;5071762;28;20492;-64
2023/02/21 07:42:26;;;;;;;7.50;3.42;;;;;;;;;;5071776;28;20488;-64
2023/02/21 07:44:57;;;;;;;5.90;2.90;;;;;;;;;;4996369;28;20057;-64
2023/02/21 07:47:27;;;;;;;6.80;2.60;;;;;;;;;;4996206;28;20526;-63
2023/02/21 07:49:57;;;;;;;5.43;2.72;;;;;;;;;;5029325;28;20072;-63
2023/02/21 07:52:27;;;;;;;6.47;2.63;;;;;;;;;;5028770;28;20061;-62
2023/02/21 07:54:56;;;;;;;5.53;2.60;;;;;;;;;;5029460;28;20046;-64
2023/02/21 07:57:26;;;;;;;7.18;3.00;;;;;;;;;;5012988;28;20053;-63
2023/02/21 07:59:56;;;;;;;4.43;2.13;;;;;;;;;;5012716;28;20053;-63
2023/02/21 08:02:27;;;;;;;5.15;2.28;;;;;;;;;;5029106;28;20374;-63
2023/02/21 08:04:56;;;;;;;4.40;2.10;;;;;;;;;;5029285;28;20049;-63
2023/02/21 08:07:26;;;;;;;4.85;2.33;;;;;;;;;;5012351;28;20548;-62
2023/02/21 08:09:56;;;;;;;5.47;2.22;;;;;;;;;;4996954;28;20054;-63
2023/02/21 08:12:25;;;;;;;4.15;2.00;;;;;;;;;;5028981;28;20045;-63
2023/02/21 08:14:55;;;;;;;4.57;2.17;;;;;;;;;;5029133;28;20053;-63
2023/02/21 08:17:25;;;;;;;5.85;2.40;;;;;;;;;;4989261;28;20497;-64
2023/02/21 08:19:55;;;;;;;4.82;2.00;;;;;;;;;;4942739;28;20057;-63
2023/02/21 08:22:26;;;;;;;4.30;2.15;;;;;;;;;;5006481;28;20066;-64
2023/02/21 08:24:55;;;;;;;4.53;2.28;;;;;;;;;;4996026;28;20082;-64
2023/02/21 08:27:25;;;;;;;4.32;2.05;;;;;;;;;;4979767;28;20049;-63
2023/02/21 08:29:55;;;;;;;7.03;1.95;;;;;;;;;;5028993;28;20050;-63
2023/02/21 08:32:25;;;;;;;4.90;2.22;;;;;;;;;;5012137;28;20501;-63
2023/02/21 08:34:55;;;;;;;4.22;2.10;;;;;;;;;;5015640;28;20493;-63
2023/02/21 08:37:24;;;;;;;4.43;2.20;;;;;;;;;;5032574;28;20054;-63
2023/02/21 08:39:54;;;;;;;3.60;1.77;;;;;;;;;;4999852;28;20440;-63
2023/02/21 08:42:24;;;;;;;4.80;2.00;;;;;;;;;;5032306;28;20057;-63
2023/02/21 08:44:54;;;;;;;7.20;2.50;;;;;;;;;;5032520;28;20049;-63
2023/02/21 08:47:23;;;;;;;3.45;1.85;;;;;;;;;;5032310;28;20049;-63
2023/02/21 08:49:53;;;;;;;3.58;1.65;;;;;;;;;;5032552;28;20157;-63
2023/02/21 08:52:23;;;;;;;4.80;1.70;;;;;;;;;;5032273;28;20054;-62
2023/02/21 08:54:54;;;;;;;4.47;1.55;;;;;;;;;;5051381;28;20056;-63
2023/02/21 08:57:24;;;;;;;3.65;1.52;;;;;;;;;;5074358;28;20043;-63
2023/02/21 08:59:53;;;;;;;5.93;1.65;;;;;;;;;;5074381;28;20045;-64
2023/02/21 09:02:25;;;;;;;4.00;1.90;;;;;;;;;;5005655;28;20064;-63
2023/02/21 09:04:54;;;;;;;4.63;1.67;;;;;;;;;;5039541;28;20052;-63
2023/02/21 09:07:24;;;;;;;3.45;1.50;;;;;;;;;;5023771;28;20080;-66
2023/02/21 09:09:54;;;;;;;3.13;1.75;;;;;;;;;;5074197;28;20045;-63
2023/02/21 09:12:24;;;;;;;2.95;1.40;;;;;;;;;;5022638;28;20068;-62
2023/02/21 09:14:54;;;;;;;3.55;1.45;;;;;;;;;;5055342;28;20407;-62
2023/02/21 09:17:24;;;;;;;3.33;1.65;;;;;;;;;;5055440;28;20059;-62
2023/02/21 09:19:54;;;;;;;3.45;1.60;;;;;;;;;;5073916;28;20056;-62
2023/02/21 09:22:23;;;;;;;3.40;1.45;;;;;;;;;;5074073;28;20442;-62
2023/02/21 09:24:53;;;;;;;5.35;1.75;;;;;;;;;;5056593;28;20051;-62
2023/02/21 09:27:35;;;;;;;3.58;1.63;;;;;;;;;;5073946;28;20040;-62
2023/02/21 09:30:12;;;;;;;4.43;1.80;;;;;;;;;;5074025;28;20049;-62
2023/02/21 09:32:42;;;;;;;2.90;1.38;;;;;;;;;;5073569;28;20055;-63
2023/02/21 09:35:13;;;;;;;5.90;2.22;;;;;;;;;;5056621;28;20043;-62
2023/02/21 09:37:44;;;;;;;2.85;1.45;;;;;;;;;;5056370;28;20044;-63
2023/02/21 09:40:43;;;;;;;3.20;1.70;;;;;;;;;;5073997;28;20056;-63
2023/02/21 09:43:20;;;;;;;3.20;1.52;;;;;;;;;;4940485;28;20047;-62
2023/02/21 09:45:54;;;;;;;3.58;1.58;;;;;;;;;;4971785;28;20050;-62
2023/02/21 09:48:25;;;;;;;3.92;1.88;;;;;;;;;;4940333;28;20530;-62
2023/02/21 09:51:01;;;;;;;4.47;1.88;;;;;;;;;;4972458;28;20055;-63
2023/02/21 09:53:37;;;;;;;3.83;1.83;;;;;;;;;;4940251;28;20062;-62
2023/02/21 09:56:28;;;;;;;4.00;1.80;;;;;;;;;;4956459;28;20054;-62
2023/02/21 09:58:57;;;;;;;;;;;;;;;;;;4972839;28;20059;-63
2023/02/21 10:02:00;;;;;;;4.22;1.45;;;;;;;;;;4972221;28;19945;-63
2023/02/21 10:04:49;;;;;;;4.53;1.77;;;;;;;;;;4924815;28;20087;-63
2023/02/21 10:07:49;;;;;;;2.40;1.13;;;;;;;;;;4972047;28;20058;-63
2023/02/21 10:10:38;;;;;;;2.95;1.55;;;;;;;;;;4972079;28;20186;-63
2023/02/21 10:13:31;;;;;;;3.08;1.48;;;;;;;;;;4971980;28;20070;-64
2023/02/21 10:16:12;;;;;;;3.85;1.30;;;;;;;;;;4972180;28;20055;-63
2023/02/21 10:19:15;;;;;;;2.22;1.20;;;;;;;;;;4971848;28;20054;-63
2023/02/21 10:21:50;;;;;;;3.35;1.77;;;;;;;;;;5072988;28;20059;-63
2023/02/21 10:24:22;;;;;;;3.65;1.88;;;;;;;;;;5006571;28;20057;-63
2023/02/21 10:27:04;;;;;;;6.10;1.63;;;;;;;;;;5021040;28;20056;-63
2023/02/21 10:29:47;;;;;;;2.22;1.30;;;;;;;;;;5037596;28;20056;-63
2023/02/21 10:32:18;;;;;;;2.47;1.25;;;;;;;;;;5072607;28;20049;-63
2023/02/21 10:34:48;;;;;;;2.45;0.93;;;;;;;;;;5072635;28;20049;-63
2023/02/21 10:37:25;;;;;;;3.85;1.23;;;;;;;;;;5072591;28;20044;-63
2023/02/21 10:40:19;;;;;;;2.42;1.00;;;;;;;;;;4989610;28;20083;-63
2023/02/21 10:42:55;;;;;;;3.47;1.20;;;;;;;;;;5072534;28;20041;-63
2023/02/21 10:45:33;;;;;;;3.22;1.23;;;;;;;;;;4973396;28;20052;-63
2023/02/21 10:48:09;;;;;;;3.00;1.33;;;;;;;;;;5020930;28;20052;-63
2023/02/21 10:51:05;;;;;;;1.65;0.82;;;;;;;;;;5020717;28;20063;-63
2023/02/21 10:53:46;;;;;;;2.85;1.13;;;;;;;;;;4971180;28;20050;-63
2023/02/21 10:56:17;;;;;;;1.90;1.20;;;;;;;;;;4955653;28;20066;-63
2023/02/21 10:58:49;;;;;;;2.42;1.40;;;;;;;;;;4907313;28;20058;-63
2023/02/21 11:01:31;;;;;;;1.45;0.80;;;;;;;;;;4971496;28;20051;-63
2023/02/21 11:04:22;;;;;;;1.73;0.95;;;;;;;;;;4907049;28;20119;-63
2023/02/21 11:06:54;;;;;;;;;;;;;;;;;;4936089;29;20649;-63
2023/02/21 11:09:27;;;;;;;1.67;0.80;;;;;;;;;;4935089;29;19945;-63
2023/02/21 11:12:16;;;;;;;1.65;0.80;;;;;;;;;;4951657;29;20060;-63
2023/02/21 11:14:52;;;;;;;1.70;0.82;;;;;;;;;;4951887;29;20047;-63
2023/02/21 11:17:23;;;;;;;2.05;0.93;;;;;;;;;;4919855;29;20063;-64
2023/02/21 11:19:56;;;;;;;1.80;0.93;;;;;;;;;;4904528;29;20047;-63
2023/02/21 11:22:37;;;;;;;4.05;0.82;;;;;;;;;;4951553;29;20514;-63
2023/02/21 11:25:27;;;;;;;1.95;0.80;;;;;;;;;;4951248;29;20058;-63
2023/02/21 11:28:15;;;;;;;2.40;1.30;;;;;;;;;;4951605;29;20067;-63
2023/02/21 11:30:52;;;;;;;1.55;0.73;;;;;;;;;;4990906;28;20060;-63
2023/02/21 11:33:23;;;;;;;1.60;0.95;;;;;;;;;;5029448;28;20080;-63
2023/02/21 11:36:07;;;;;;;1.33;0.73;;;;;;;;;;4996336;28;20049;-63
2023/02/21 11:38:44;;;;;;;1.92;1.02;;;;;;;;;;5046587;28;20053;-63
2023/02/21 11:41:27;;;;;;;2.35;1.15;;;;;;;;;;4986440;28;20068;-63
2023/02/21 11:43:58;;;;;;;2.92;1.25;;;;;;;;;;5016471;28;20049;-64
2023/02/21 11:46:39;;;;;;;2.92;1.23;;;;;;;;;;5032892;28;20051;-63
2023/02/21 11:49:25;;;;;;;3.60;2.10;;;;;;;;;;4999942;28;20536;-63
2023/02/21 11:52:25;;;;;;;3.03;1.23;;;;;;;;;;5033333;28;20057;-64
2023/02/21 11:54:55;;;;;;;2.40;1.23;;;;;;;;;;5033011;28;20063;-63
2023/02/21 11:58:00;;;;;;;2.25;1.13;;;;;;;;;;5016365;28;20057;-67
2023/02/21 12:00:45;;;;;;;2.10;1.05;;;;;;;;;;5050460;28;20041;-64
2023/02/21 12:03:18;;;;;;;3.05;1.10;;;;;;;;;;5051848;28;20516;-63
2023/02/21 12:06:27;;;;;;;2.10;1.05;;;;;;;;;;5051422;28;20049;-63
2023/02/21 12:09:12;;;;;;;2.03;1.10;;;;;;;;;;5053271;28;20420;-63
2023/02/21 12:12:14;;;;;;;4.13;1.63;;;;;;;;;;5054307;28;20413;-62
2023/02/21 12:15:02;;;;;;;1.60;0.95;;;;;;;;;;4993563;28;20058;-63
2023/02/21 12:17:46;;;;;;;2.13;1.33;;;;;;;;;;4993838;28;20042;-64
2023/02/21 12:20:53;;;;;;;2.75;1.55;;;;;;;;;;4978574;28;20062;-64
2023/02/21 12:23:41;;;;;;;3.15;1.38;;;;;;;;;;4967917;28;20058;-63
2023/02/21 12:26:17;;;;;;;2.95;1.20;;;;;;;;;;4993432;28;20066;-63
2023/02/21 12:28:53;;;;;;;2.17;1.30;;;;;;;;;;4993396;28;20050;-63
2023/02/21 12:31:57;;;;;;;3.17;1.63;;;;;;;;;;4993408;28;20062;-63
2023/02/21 12:34:36;;;;;;;6.95;3.50;;;;;;;;;;4947700;28;20054;-64
2023/02/21 12:37:06;;;;;;;;;;;;;;;;;;4994053;28;20053;-63
2023/02/21 12:39:38;;;;;;;3.22;1.27;;;;;;;;;;4993267;28;20493;-63
2023/02/21 12:42:30;;;;;;;1.90;1.10;;;;;;;;;;4993317;28;20050;-63
2023/02/21 12:45:24;;;;;;;6.28;1.70;;;;;;;;;;4992997;28;20066;-63
2023/02/21 12:48:37;;;;;;;4.70;2.10;;;;;;;;;;4993279;28;20058;-64
2023/02/21 12:51:13;;;;;;;6.03;3.78;;;;;;;;;;4949957;28;20062;-63
2023/02/21 12:53:52;;;;;;;2.45;1.58;;;;;;;;;;4993186;28;20046;-63
2023/02/21 12:56:32;;;;;;;2.20;1.42;;;;;;;;;;4992991;28;20058;-63
2023/02/21 12:59:27;;;;;;;2.60;1.23;;;;;;;;;;4945786;28;20062;-64
2023/02/21 13:02:07;;;;;;;2.75;1.98;;;;;;;;;;4992930;28;20059;-63
2023/02/21 13:05:02;;;;;;;2.15;1.02;;;;;;;;;;4960170;28;20050;-64
2023/02/21 13:07:43;;;;;;;3.45;1.48;;;;;;;;;;4992741;28;20065;-63
2023/02/21 13:10:40;;;;;;;3.42;1.35;;;;;;;;;;4945220;28;20073;-63
2023/02/21 13:13:15;;;;;;;2.00;1.25;;;;;;;;;;4896567;29;20057;-64
2023/02/21 13:15:47;;;;;;;3.03;1.40;;;;;;;;;;4896832;29;20104;-64
2023/02/21 13:18:31;;;;;;;4.15;1.50;;;;;;;;;;4880988;29;20061;-64
2023/02/21 13:21:38;;;;;;;2.40;1.35;;;;;;;;;;4864414;29;20060;-64
2023/02/21 13:24:23;;;;;;;2.20;1.33;;;;;;;;;;4896562;29;20060;-64
2023/02/21 13:27:17;;;;;;;3.40;1.70;;;;;;;;;;4902175;29;20063;-64
2023/02/21 13:29:48;;;;;;;3.95;2.05;;;;;;;;;;4934439;29;20052;-64
2023/02/21 13:32:19;;;;;;;3.03;1.40;;;;;;;;;;4918145;29;20056;-64
2023/02/21 13:35:00;;;;;;;15.52;7.30;;;;;;;;;;4902787;29;20056;-64
2023/02/21 13:37:33;;;;;;;1.95;1.20;;;;;;;;;;4934269;29;20051;-64
2023/02/21 13:40:21;;;;;;;2.45;1.42;;;;;;;;;;4934366;29;20051;-64
2023/02/21 13:43:34;;;;;;;2.03;1.20;;;;;;;;;;4904861;29;20052;-64
2023/02/21 13:46:31;;;;;;;2.53;1.20;;;;;;;;;;4896257;29;20064;-64
2023/02/21 13:49:37;;;;;;;4.28;3.10;;;;;;;;;;4896274;29;20051;-64
2023/02/21 13:52:21;;;;;;;4.43;1.60;;;;;;;;;;4934095;29;20051;-64
2023/02/21 13:55:14;;;;;;;2.75;1.85;;;;;;;;;;4934059;29;20044;-64
2023/02/21 13:57:59;;;;;;;2.55;1.42;;;;;;;;;;4933894;29;20059;-64
2023/02/21 14:00:28;;;;;;;2.40;1.25;;;;;;;;;;4949298;29;20063;-64
2023/02/21 14:03:11;;;;;;;4.18;1.63;;;;;;;;;;4933808;29;20556;-64
2023/02/21 14:05:48;;;;;;;1.77;1.30;;;;;;;;;;4933532;29;20099;-64
2023/02/21 14:08:45;;;;;;;3.58;1.15;;;;;;;;;;4933815;29;20044;-64
2023/02/21 14:11:18;;;;;;;2.05;1.30;;;;;;;;;;4981693;28;20457;-64
2023/02/21 14:13:58;;;;;;;2.85;1.30;;;;;;;;;;4959027;28;20062;-64
2023/02/21 14:16:52;;;;;;;1.30;0.95;;;;;;;;;;4991421;28;20569;-64
2023/02/21 14:19:46;;;;;;;2.50;1.13;;;;;;;;;;4974900;28;20073;-63
2023/02/21 14:22:24;;;;;;;3.15;1.27;;;;;;;;;;4991286;28;20052;-64
2023/02/21 14:25:07;;;;;;;1.70;1.00;;;;;;;;;;5052950;28;20396;-63
2023/02/21 14:27:41;;;;;;;4.32;1.10;;;;;;;;;;5052712;28;20041;-64
2023/02/21 14:30:11;;;;;;;5.53;1.20;;;;;;;;;;5052769;28;20052;-63
2023/02/21 14:32:51;;;;;;;2.47;1.10;;;;;;;;;;5054433;28;20511;-64
2023/02/21 14:35:34;;;;;;;3.53;0.90;;;;;;;;;;5025265;28;20148;-64
2023/02/21 14:38:14;;;;;;;2.20;1.42;;;;;;;;;;5072305;28;20044;-64
2023/02/21 14:41:15;;;;;;;1.70;1.20;;;;;;;;;;5053733;28;20492;-64
2023/02/21 14:44:29;;;;;;;1.70;0.90;;;;;;;;;;5072533;28;20052;-64
2023/02/21 14:47:46;;;;;;;1.20;0.80;;;;;;;;;;4978508;28;20506;-64
2023/02/21 14:50:40;;;;;;;2.47;1.00;;;;;;;;;;4958223;28;20043;-64
2023/02/21 14:53:22;;;;;;;1.45;1.00;;;;;;;;;;4965459;28;20051;-64
2023/02/21 14:56:28;;;;;;;2.13;1.08;;;;;;;;;;4955068;28;20525;-64
2023/02/21 14:59:15;;;;;;;2.08;0.93;;;;;;;;;;4958992;28;20051;-64
2023/02/21 15:02:18;;;;;;;1.60;1.10;;;;;;;;;;4935623;29;20523;-64
2023/02/21 15:05:06;;;;;;;1.90;1.00;;;;;;;;;;4956759;28;20062;-64
2023/02/21 15:08:02;;;;;;;2.15;0.65;;;;;;;;;;4951346;28;20066;-64
2023/02/21 15:10:44;;;;;;;1.55;0.73;;;;;;;;;;4880921;29;20088;-64
2023/02/21 15:13:28;;;;;;;2.40;1.48;;;;;;;;;;4926194;29;20401;-64
2023/02/21 15:16:05;;;;;;;1.77;0.65;;;;;;;;;;4916473;29;20168;-64
2023/02/21 15:18:39;;;;;;;1.48;0.90;;;;;;;;;;4909597;29;20064;-65
2023/02/21 15:21:10;;;;;;;1.23;0.82;;;;;;;;;;4893982;29;20569;-65
2023/02/21 15:23:45;;;;;;;1.23;0.73;;;;;;;;;;4974889;28;20066;-64
2023/02/21 15:26:18;;;;;;;2.42;1.55;;;;;;;;;;4997405;28;20037;-64
2023/02/21 15:29:15;;;;;;;1.60;0.98;;;;;;;;;;4971668;28;20062;-64
2023/02/21 15:31:51;;;;;;;1.98;1.23;;;;;;;;;;4992026;28;20061;-64
2023/02/21 15:34:32;;;;;;;2.72;1.20;;;;;;;;;;4995413;28;20053;-64
2023/02/21 15:37:19;;;;;;;2.17;1.10;;;;;;;;;;4963175;28;20063;-64
2023/02/21 15:40:03;;;;;;;4.53;1.50;;;;;;;;;;5003444;28;20607;-63
2023/02/21 15:42:34;;;;;;;2.83;1.60;;;;;;;;;;5001837;28;20058;-64
2023/02/21 15:45:17;;;;;;;2.45;1.65;;;;;;;;;;4981842;28;20061;-64
2023/02/21 15:47:49;;;;;;;3.28;1.55;;;;;;;;;;4963561;28;20565;-64
2023/02/21 15:50:26;;;;;;;2.28;1.25;;;;;;;;;;4994839;28;20062;-64
2023/02/21 15:53:21;;;;;;;2.40;1.38;;;;;;;;;;5007514;28;20058;-64
2023/02/21 15:55:52;;;;;;;2.38;1.20;;;;;;;;;;4990847;28;20064;-64
2023/02/21 15:58:26;;;;;;;2.45;1.48;;;;;;;;;;5015284;28;20045;-64
2023/02/21 16:01:09;;;;;;;3.10;1.42;;;;;;;;;;4948517;28;20054;-64
2023/02/21 16:03:41;;;;;;;3.35;1.70;;;;;;;;;;5021488;28;20483;-64
2023/02/21 16:06:30;;;;;;;3.40;1.45;;;;;;;;;;4993440;28;20058;-64
2023/02/21 16:09:19;;;;;;;3.85;1.20;;;;;;;;;;4966378;28;20112;-64
2023/02/21 16:11:54;;;;;;;2.45;1.10;;;;;;;;;;5028980;28;20056;-64
2023/02/21 16:14:40;;;;;;;1.42;0.88;;;;;;;;;;5028638;28;20049;-64
2023/02/21 16:17:12;;;;;;;1.25;1.10;;;;;;;;;;5041107;28;20420;-64
2023/02/21 16:19:46;;;;;;;1.35;0.88;;;;;;;;;;4980004;28;20072;-65
2023/02/21 16:22:37;;;;;;;1.63;0.70;;;;;;;;;;4990771;28;20068;-64
2023/02/21 16:25:27;;;;;;;0.90;0.60;;;;;;;;;;5026345;28;20053;-64
2023/02/21 16:28:00;;;;;;;1.15;0.65;;;;;;;;;;5025769;28;20050;-63
2023/02/21 16:30:34;;;;;;;1.02;0.60;;;;;;;;;;4975310;28;20045;-63
2023/02/21 16:33:05;;;;;;;3.20;0.70;;;;;;;;;;5008730;28;20089;-63
2023/02/21 16:35:35;;;;;;;0.80;0.60;;;;;;;;;;5008778;28;20502;-63
2023/02/21 16:38:07;;;;;;;1.73;0.65;;;;;;;;;;4991328;28;20042;-64
2023/02/21 16:40:37;;;;;;;0.90;0.50;;;;;;;;;;5008504;28;20054;-63
2023/02/21 16:43:14;;;;;;;1.05;0.95;;;;;;;;;;4960206;28;20461;-63
2023/02/21 16:45:44;;;;;;;1.00;0.60;;;;;;;;;;5025303;28;20056;-63
2023/02/21 16:48:20;;;;;;;0.50;0.43;;;;;;;;;;4959605;28;20540;-64
2023/02/21 16:50:50;;;;;;;0.90;0.55;;;;;;;;;;5024721;28;20053;-64
2023/02/21 16:53:21;;;;;;;0.55;0.40;;;;;;;;;;4992792;28;20057;-63
2023/02/21 16:55:51;;;;;;;1.50;0.90;;;;;;;;;;4986802;28;20536;-63
2023/02/21 16:58:26;;;;;;;1.35;1.02;;;;;;;;;;5037881;28;20421;-64
2023/02/21 17:01:00;;;;;;;1.48;0.73;;;;;;;;;;5056953;28;20053;-64
2023/02/21 17:03:30;;;;;;;1.77;0.77;;;;;;;;;;5027248;28;20068;-64
2023/02/21 17:06:00;;;;;;;2.20;0.93;;;;;;;;;;5047096;28;20056;-64
2023/02/21 17:08:30;;;;;;;1.38;0.73;;;;;;;;;;5016861;28;20064;-64
2023/02/21 17:11:01;;;;;;;1.00;0.70;;;;;;;;;;5060123;28;20057;-64
2023/02/21 17:13:34;;;;;;;1.83;0.60;;;;;;;;;;5063608;28;20057;-64
2023/02/21 17:16:04;;;;;;;1.08;0.70;;;;;;;;;;5063627;28;20049;-63
2023/02/21 17:18:34;;;;;;;1.50;0.98;;;;;;;;;;5031056;28;20056;-64
2023/02/21 17:21:05;;;;;;;1.75;0.82;;;;;;;;;;5051379;28;20408;-64
2023/02/21 17:23:34;;;;;;;1.05;0.77;;;;;;;;;;5050824;28;20049;-64
2023/02/21 17:26:04;;;;;;;2.10;1.02;;;;;;;;;;5000205;28;20041;-64
2023/02/21 17:28:36;;;;;;;1.83;1.00;;;;;;;;;;5020241;28;20060;-65
2023/02/21 17:31:06;;;;;;;2.50;1.15;;;;;;;;;;5047927;28;20056;-64
2023/02/21 17:33:37;;;;;;;2.40;1.10;;;;;;;;;;5034151;28;20060;-64
2023/02/21 17:36:07;;;;;;;1.90;1.10;;;;;;;;;;5015901;28;20053;-65
2023/02/21 17:38:37;;;;;;;1.58;0.90;;;;;;;;;;4987863;28;20503;-65
2023/02/21 17:41:07;;;;;;;0.95;0.65;;;;;;;;;;5003031;28;20536;-64
2023/02/21 17:43:38;;;;;;;1.50;0.70;;;;;;;;;;4973984;28;20066;-65
2023/02/21 17:46:12;;;;;;;1.00;0.70;;;;;;;;;;4987456;28;20050;-65
2023/02/21 17:48:43;;;;;;;0.95;0.43;;;;;;;;;;4986436;28;20422;-64
2023/02/21 17:51:25;;;;;;;1.45;0.70;;;;;;;;;;4983107;28;20059;-64
2023/02/21 17:53:55;;;;;;;1.42;0.80;;;;;;;;;;4958023;28;20050;-64
2023/02/21 17:56:27;;;;;;;1.52;0.50;;;;;;;;;;4973232;28;20054;-64